This is the latest recevied weather packets stored in our database for station/object SV1RVP-13. If no packets are shown the sender has not sent any weather packets the latest 1 day(s).
| Time | Temp. | Humidity | Pressure | Rain* | Wind** | Luminosity | Snow |
|---|---|---|---|---|---|---|---|
| 1778055532 | 22.78° C | 51% | 1016.2 hPa | 0 mm | - | - | - |
| 1778054317 | 22.78° C | 50% | 1016 hPa | 0 mm | - | - | - |
| 1778052507 | 22.22° C | 50% | 1015.9 hPa | 0 mm | - | - | - |
| 1778051317 | 22.22° C | 50% | 1015.8 hPa | 0 mm | - | - | - |
| 1778050710 | 21.67° C | 50% | 1015.8 hPa | 0 mm | - | - | - |
| 1778050106 | 21.67° C | 49% | 1015.8 hPa | 0 mm | - | - | - |
| 1778049528 | 21.67° C | 50% | 1015.8 hPa | 0 mm | - | - | - |
| 1778048915 | 21.11° C | 51% | 1015.9 hPa | 0 mm | - | - | - |
| 1778048313 | 21.11° C | 50% | 1015.8 hPa | 0 mm | - | - | - |
| 1778047111 | 20.56° C | 54% | 1015.8 hPa | 0 mm | - | - | - |
| 1778046506 | 20° C | 54% | 1015.8 hPa | 0 mm | - | - | - |
| 1778045925 | 19.44° C | 55% | 1015.7 hPa | 0 mm | - | - | - |
| 1778045320 | 19.44° C | 56% | 1015.6 hPa | 0 mm | - | - | - |
| 1778044708 | 18.89° C | 58% | 1015.6 hPa | 0 mm | - | - | - |
| 1778044106 | 18.89° C | 59% | 1015.6 hPa | 0 mm | - | - | - |
| 1778043524 | 18.33° C | 60% | 1015.4 hPa | 0 mm | - | - | - |
| 1778042315 | 17.78° C | 62% | 1015.3 hPa | 0 mm | - | - | - |
| 1778041109 | 16.67° C | 66% | 1015.3 hPa | 0 mm | - | - | - |
| 1778040512 | 16.11° C | 66% | 1015.1 hPa | 0 mm | - | - | - |
| 1778038716 | 16.11° C | 67% | 1014.7 hPa | 0 mm | - | - | - |
| 1778037508 | 16.11° C | 68% | 1014.6 hPa | 0 mm | - | - | - |
| 1778036911 | 16.11° C | 69% | 1014.6 hPa | 0 mm | - | - | - |
| 1778036320 | 16.11° C | 70% | 1014.6 hPa | 0 mm | - | - | - |
| 1778035116 | 16.67° C | 69% | 1014.5 hPa | 0 mm | - | - | - |
| 1778032726 | 17.22° C | 67% | 1014.7 hPa | 0 mm | - | - | - |
* Rain since midnight (hover to see other rain measurements)
** Current wind speed in m/s (hover to see current wind gust speed)